Airfield :
LOGIN :

Register | Disclaimer

   EN    FR    IT 

 










Legend :    VFR   Marginal VFR   IFR   Intensive IFR   Very Intensive IFR
Visi :
Ceiling :
>= 8 km
>= 3000ft
5 to 8 km
1000 to 3000 ft
1500m to 5 km
500 to 1000 ft
800 to 1500m
200 to 500 ft
< 800m
< 200 ft
Symbols :   Thunderstorms  Fog  Heavy snow  Heavy precipitations  Wind > 20 kt
SIGMETs :     Misc.  Thunderstorms  Icing  Turbulence  Mountain Waves  Volcanic Ashes







- Airport Elevation : 162 ft
- IATA code : BOD
- Download approach charts


LFBD - Bordeaux / Merignac

CURRENT METAR :
  • 182100Z AUTO 08009KT CAVOK 11/04 Q1011 NOSIG

EXPIRED METARs :
  • 182030Z AUTO 08008KT CAVOK 11/04 Q1011 NOSIG
  • 182000Z AUTO 08008KT CAVOK 11/04 Q1011 NOSIG
  • 181930Z AUTO 08010KT CAVOK 12/04 Q1011 NOSIG
  • 181900Z AUTO 08009KT 9999 FEW009 12/04 Q1011 NOSIG
  • 181830Z AUTO 08008KT CAVOK 13/05 Q1011 NOSIG

TAF TAF LFBD
Valid from the 18 at 18:00 until the 20 at 00:00 UTC


181700Z 1818/1924 09012KT CAVOK TX12/1818Z TN03/1924Z
BECMG 1822/1824 04006KT
ATIS : +33 5 57 92 81 04
No reported NOTAMs for that airfield.
2 SIGMETs reported for the Bordeaux FIR (LFBB) :
 
Severe turbulence
LFBB SIGMET 4 VALID 182100/190000 LFPW
LFBB BORDEAUX FIR/UIR SEV TURB FCST WI N4430 W00145 - N4545 W00145 - N4445 E00230 - N4345 E00215 - N4430 W00145 FL180/370 MOV S 10KT NC=
Severe turbulence
LFBB SIGMET 3 VALID 181700/182100 LFPW
LFBB BORDEAUX FIR/UIR SEV TURB FCST WI N4715 W00015 - N4715 E00200 - N4630 E00300 - N4515 E00245 - N4545 W00015 - N4715 W00015 FL320/380 MOV SW 15KT NC=



MET'MAP, your aeronautical weather chart ! - Copyright ORBIFLY December 2007 - Disclaimer

ORBIFLY MET'MAP TEAM :

Programming & Development : Alexandra Zaïnal
Concept & Development : Baudouin d'Aumeries
Co-Development & Prog : Marc-Olivier Méhu
Technical & hardware support : Manuel Goepfert

Contact : metmap@orbifly.com




SOURCES & CREDITS :

   NOAA